KFTK/FTK METAR and TAF weather

Enter ICAO airport designator
Station Type Date Time Source
KFTK METAR 2021/02/25 01:26 UTC NOAA

KFTK 250126Z AUTO 30010KT 10SM BKN090 OVC110 13/05 A3006 RMK AO2 SLP182


Station Type Date Time Source
KFTK Decoded METAR 2021/02/25 01:26 UTC NOAA

Fort Knox, KY, United States (KFTK) 37-54N 085-58W 230M
Feb 24, 2021 - 08:26 PM EST / 2021.02.25 0126 UTC
Wind: from the WNW (300 degrees) at 12 MPH (10 KT):0
Visibility: 10 mile(s):0
Sky conditions: overcast
Temperature: 55 F (13 C)
Dew Point: 41 F (5 C)
Relative Humidity: 58%
Pressure (altimeter): 30.06 in. Hg (1017 hPa)
ob: KFTK 250126Z AUTO 30010KT 10SM BKN090 OVC110 13/05 A3006 RMK AO2 SLP182
cycle: 1

Station Type Date Time Source
KFTK TAF 2021/02/24 20:03 UTC NOAA

TAF TAF KFTK 242000Z 2420/2602 24014G20KT 9999 SCT045 BKN090 510005 QNH2985INS
TEMPO 2420/2422 24018G26KT
BECMG 2422/2423 28010KT 9999 VCSH BKN050 510103 QNH2985INS
BECMG 2502/2503 33012KT 9999 NSW BKN030 QNH3000INS
BECMG 2508/2509 35008KT 9999 BKN025 QNH3029INS
BECMG 2518/2519 36006KT 9999 SCT025 BKN200 QNH3028INS TX19/2420Z TNM01/2513Z LAST NO
AMDS AFT 2504 NEXT 2512

Example: see airport list